createdAt,value
2023-05-04T00:00:50.881Z,958.20
2023-05-04T00:01:50.869Z,958.16
2023-05-04T00:02:50.976Z,958.21
2023-05-04T00:03:51.158Z,958.19
2023-05-04T00:04:50.924Z,958.15
2023-05-04T00:05:50.830Z,958.18
2023-05-04T00:06:50.838Z,958.14
2023-05-04T00:07:50.797Z,958.16
2023-05-04T00:08:50.857Z,958.12
2023-05-04T00:09:50.844Z,958.11
2023-05-04T00:10:50.749Z,958.10
2023-05-04T00:11:50.784Z,958.10
2023-05-04T00:12:50.840Z,958.15
2023-05-04T00:13:50.739Z,958.18
2023-05-04T00:14:50.702Z,958.13
2023-05-04T00:15:50.724Z,958.11
2023-05-04T00:16:50.713Z,958.13
2023-05-04T00:18:22.176Z,958.13
2023-05-04T00:18:50.660Z,958.13
2023-05-04T00:19:50.632Z,958.09
2023-05-04T00:20:50.631Z,958.08
2023-05-04T00:21:50.654Z,958.09
2023-05-04T00:22:50.615Z,958.06
2023-05-04T00:23:50.600Z,958.00
2023-05-04T00:24:50.583Z,958.08
2023-05-04T00:25:50.560Z,958.02
2023-05-04T00:26:50.583Z,958.01
2023-05-04T00:27:50.525Z,958.02
2023-05-04T00:28:50.534Z,957.99
2023-05-04T00:29:50.537Z,957.99
2023-05-04T00:30:50.530Z,957.99
2023-05-04T00:31:50.560Z,957.98
2023-05-04T00:32:50.510Z,957.98
2023-05-04T00:33:50.458Z,957.98
2023-05-04T00:34:50.439Z,957.95
2023-05-04T00:35:50.592Z,957.98
2023-05-04T00:36:50.442Z,957.95
2023-05-04T00:37:50.439Z,957.91
2023-05-04T00:38:50.403Z,957.94
2023-05-04T00:39:50.382Z,957.95
2023-05-04T00:40:50.357Z,957.95
2023-05-04T00:41:50.366Z,957.93
2023-05-04T00:42:50.364Z,957.92
2023-05-04T00:43:50.329Z,957.93
2023-05-04T00:44:50.310Z,957.90
2023-05-04T00:45:50.300Z,957.86
2023-05-04T00:46:50.362Z,957.88
2023-05-04T00:47:50.328Z,957.91
2023-05-04T00:48:50.295Z,957.89
2023-05-04T00:49:50.253Z,957.89
2023-05-04T00:50:50.225Z,957.87
2023-05-04T00:51:50.250Z,957.84
2023-05-04T00:52:50.240Z,957.83
2023-05-04T00:53:50.181Z,957.81
2023-05-04T00:54:50.213Z,957.83
2023-05-04T00:55:50.202Z,957.84
2023-05-04T00:56:50.183Z,957.81
2023-05-04T00:57:50.155Z,957.82
2023-05-04T00:58:50.132Z,957.81
2023-05-04T00:59:50.119Z,957.80
2023-05-04T01:00:50.129Z,957.87
2023-05-04T01:01:50.127Z,957.81
2023-05-04T01:02:50.151Z,957.82
2023-05-04T01:03:50.108Z,957.82
2023-05-04T01:04:50.042Z,957.79
2023-05-04T01:05:50.030Z,957.82
2023-05-04T01:06:50.070Z,957.84
2023-05-04T01:07:49.990Z,957.79
2023-05-04T01:08:49.999Z,957.82
2023-05-04T01:09:50.014Z,957.82
2023-05-04T01:10:49.975Z,957.78
2023-05-04T01:11:49.971Z,957.79
2023-05-04T01:12:50.003Z,957.80
2023-05-04T01:13:49.925Z,957.80
2023-05-04T01:14:49.955Z,957.80
2023-05-04T01:15:49.895Z,957.83
2023-05-04T01:16:49.992Z,957.78
2023-05-04T01:17:49.934Z,957.80
2023-05-04T01:18:49.861Z,957.79
2023-05-04T01:19:49.873Z,957.78
2023-05-04T01:20:49.835Z,957.76
2023-05-04T01:21:49.824Z,957.80
2023-05-04T01:22:49.842Z,957.80
2023-05-04T01:23:49.803Z,957.78
2023-05-04T01:24:49.791Z,957.80
2023-05-04T01:25:49.796Z,957.82
2023-05-04T01:26:49.759Z,957.79
2023-05-04T01:27:49.748Z,957.79
2023-05-04T01:28:49.714Z,957.80
2023-05-04T01:29:49.744Z,957.78
2023-05-04T01:30:49.758Z,957.77
2023-05-04T01:31:49.708Z,957.76
2023-05-04T01:32:49.741Z,957.79
2023-05-04T01:33:49.681Z,957.72
2023-05-04T01:34:49.692Z,957.75
2023-05-04T01:35:49.631Z,957.72
2023-05-04T01:36:49.644Z,957.71
2023-05-04T01:37:49.617Z,957.78
2023-05-04T01:38:49.619Z,957.74
2023-05-04T01:39:49.613Z,957.78
2023-05-04T01:40:49.601Z,957.75
2023-05-04T01:41:49.565Z,957.71
2023-05-04T01:42:49.562Z,957.78
2023-05-04T01:43:49.526Z,957.75
2023-05-04T01:44:49.541Z,957.78
2023-05-04T01:45:49.542Z,957.81
2023-05-04T01:46:49.494Z,957.79
2023-05-04T01:47:49.513Z,957.78
2023-05-04T01:48:49.458Z,957.77
2023-05-04T01:49:49.483Z,957.81
2023-05-04T01:50:49.450Z,957.76
2023-05-04T01:51:49.489Z,957.82
2023-05-04T01:52:49.404Z,957.76
2023-05-04T01:53:49.403Z,957.73
2023-05-04T01:54:49.410Z,957.74
2023-05-04T01:55:49.377Z,957.75
2023-05-04T01:56:49.362Z,957.75
2023-05-04T01:57:49.373Z,957.73
2023-05-04T01:58:49.330Z,957.74
2023-05-04T01:59:49.329Z,957.73
2023-05-04T02:00:49.318Z,957.76
2023-05-04T02:01:49.378Z,957.77
2023-05-04T02:02:49.373Z,957.75
2023-05-04T02:03:49.440Z,957.80
2023-05-04T02:04:49.262Z,957.77
2023-05-04T02:05:49.229Z,957.77
2023-05-04T02:06:49.240Z,957.77
2023-05-04T02:07:49.234Z,957.80
2023-05-04T02:08:49.202Z,957.80
2023-05-04T02:09:49.185Z,957.82
2023-05-04T02:10:49.187Z,957.83
2023-05-04T02:11:49.158Z,957.81
2023-05-04T02:12:49.209Z,957.80
2023-05-04T02:13:49.141Z,957.81
2023-05-04T02:14:49.183Z,957.79
2023-05-04T02:15:49.301Z,957.81
2023-05-04T02:16:49.094Z,957.79
2023-05-04T02:17:49.156Z,957.80
2023-05-04T02:18:49.069Z,957.77
2023-05-04T02:19:49.055Z,957.78
2023-05-04T02:20:49.059Z,957.78
2023-05-04T02:21:49.026Z,957.78
2023-05-04T02:22:49.011Z,957.79
2023-05-04T02:23:49.009Z,957.75
2023-05-04T02:24:49.038Z,957.81
2023-05-04T02:25:48.996Z,957.81
2023-05-04T02:26:48.949Z,957.84
2023-05-04T02:27:48.945Z,957.81
2023-05-04T02:28:48.948Z,957.82
2023-05-04T02:29:48.927Z,957.78
2023-05-04T02:30:48.945Z,957.80
2023-05-04T02:31:48.935Z,957.82
2023-05-04T02:32:48.927Z,957.79
2023-05-04T02:33:48.894Z,957.79
2023-05-04T02:34:48.888Z,957.77
2023-05-04T02:35:48.857Z,957.78
2023-05-04T02:36:48.832Z,957.76
2023-05-04T02:37:48.839Z,957.76
2023-05-04T02:38:48.813Z,957.81
2023-05-04T02:39:48.796Z,957.81
2023-05-04T02:40:48.776Z,957.79
2023-05-04T02:41:48.764Z,957.80
2023-05-04T02:42:48.776Z,957.79
2023-05-04T02:43:48.765Z,957.78
2023-05-04T02:44:48.739Z,957.80
2023-05-04T02:45:48.794Z,957.78
2023-05-04T02:46:48.719Z,957.83
2023-05-04T02:47:48.768Z,957.84
2023-05-04T02:48:48.663Z,957.81
2023-05-04T02:49:48.654Z,957.83
2023-05-04T02:50:48.680Z,957.86
2023-05-04T02:51:48.643Z,957.86
2023-05-04T02:52:48.635Z,957.86
2023-05-04T02:53:48.599Z,957.82
2023-05-04T02:54:49.015Z,957.83
2023-05-04T02:55:48.619Z,957.81
2023-05-04T02:56:48.580Z,957.78
2023-05-04T02:57:48.542Z,957.80
2023-05-04T02:58:48.538Z,957.81
2023-05-04T02:59:48.534Z,957.82
2023-05-04T03:00:48.523Z,957.80
2023-05-04T03:01:48.617Z,957.81
2023-05-04T03:02:48.546Z,957.89
2023-05-04T03:03:48.550Z,957.84
2023-05-04T03:04:48.478Z,957.85
2023-05-04T03:05:48.442Z,957.82
2023-05-04T03:06:48.448Z,957.82
2023-05-04T03:07:48.456Z,957.84
2023-05-04T03:08:48.426Z,957.84
2023-05-04T03:09:48.398Z,957.82
2023-05-04T03:10:48.362Z,957.87
2023-05-04T03:11:48.372Z,957.88
2023-05-04T03:12:48.459Z,957.86
2023-05-04T03:13:48.349Z,957.85
2023-05-04T03:14:48.340Z,957.88
2023-05-04T03:15:48.360Z,957.86
2023-05-04T03:16:48.416Z,957.86
2023-05-04T03:17:48.348Z,957.85
2023-05-04T03:19:09.299Z,957.86
2023-05-04T03:19:48.262Z,957.85
2023-05-04T03:20:48.274Z,957.87
2023-05-04T03:21:48.275Z,957.89
2023-05-04T03:22:48.225Z,957.94
2023-05-04T03:23:48.207Z,957.93
2023-05-04T03:24:48.219Z,957.92
2023-05-04T03:25:48.233Z,957.92
2023-05-04T03:26:48.181Z,957.92
2023-05-04T03:27:48.165Z,957.89
2023-05-04T03:28:48.141Z,957.85
2023-05-04T03:29:48.135Z,957.84
2023-05-04T03:30:48.144Z,957.87
2023-05-04T03:31:48.177Z,957.86
2023-05-04T03:32:48.127Z,957.81
2023-05-04T03:33:48.081Z,957.81
2023-05-04T03:34:48.066Z,957.84
2023-05-04T03:35:48.051Z,957.86
2023-05-04T03:36:48.057Z,957.88
2023-05-04T03:37:48.024Z,957.89
2023-05-04T03:38:48.005Z,957.89
2023-05-04T03:39:48.003Z,957.88
2023-05-04T03:40:48.016Z,957.89
2023-05-04T03:41:47.968Z,957.89
2023-05-04T03:42:47.984Z,957.88
2023-05-04T03:43:47.943Z,957.91
2023-05-04T03:44:47.940Z,957.90
2023-05-04T03:45:47.956Z,957.90
2023-05-04T03:46:47.925Z,957.91
2023-05-04T03:47:47.953Z,957.91
2023-05-04T03:48:47.879Z,957.92
2023-05-04T03:49:47.908Z,957.92
2023-05-04T03:50:47.870Z,957.91
2023-05-04T03:51:47.839Z,957.94
2023-05-04T03:52:47.837Z,957.95
2023-05-04T03:53:47.826Z,957.95
2023-05-04T03:54:47.810Z,957.90
2023-05-04T03:55:47.807Z,957.94
2023-05-04T03:56:47.767Z,957.95
2023-05-04T03:57:47.772Z,957.93
2023-05-04T03:58:47.757Z,957.92
2023-05-04T03:59:47.763Z,957.90
2023-05-04T04:00:47.753Z,957.90
2023-05-04T04:01:47.720Z,957.89
2023-05-04T04:02:47.855Z,957.91
2023-05-04T04:03:47.751Z,957.92
2023-05-04T04:04:47.723Z,957.93
2023-05-04T04:05:47.658Z,957.89
2023-05-04T04:06:47.734Z,957.92
2023-05-04T04:07:47.626Z,957.90
2023-05-04T04:08:47.620Z,957.91
2023-05-04T04:09:47.618Z,957.86
2023-05-04T04:10:47.595Z,957.89
2023-05-04T04:11:47.599Z,957.92
2023-05-04T04:12:47.600Z,957.91
2023-05-04T04:13:47.589Z,957.90
2023-05-04T04:14:47.561Z,957.91
2023-05-04T04:15:47.557Z,957.92
2023-05-04T04:16:47.569Z,957.94
2023-05-04T04:17:47.516Z,957.93
2023-05-04T04:18:47.480Z,957.94
2023-05-04T04:19:47.511Z,957.94
2023-05-04T04:20:47.466Z,957.94
2023-05-04T04:21:47.443Z,957.95
2023-05-04T04:22:47.430Z,957.95
2023-05-04T04:23:47.443Z,957.98
2023-05-04T04:24:47.415Z,957.95
2023-05-04T04:25:47.439Z,958.00
2023-05-04T04:26:47.385Z,958.00
2023-05-04T04:27:47.400Z,957.98
2023-05-04T04:28:47.355Z,958.01
2023-05-04T04:29:47.338Z,958.04
2023-05-04T04:30:47.371Z,958.03
2023-05-04T04:31:47.398Z,958.06
2023-05-04T04:32:47.344Z,958.06
2023-05-04T04:33:47.266Z,958.06
2023-05-04T04:34:47.296Z,958.06
2023-05-04T04:35:47.270Z,958.07
2023-05-04T04:36:47.239Z,958.06
2023-05-04T04:37:47.240Z,958.04
2023-05-04T04:38:47.238Z,958.07
2023-05-04T04:39:47.234Z,958.03
2023-05-04T04:40:47.192Z,958.02
2023-05-04T04:41:47.187Z,958.04
2023-05-04T04:42:47.182Z,958.02
2023-05-04T04:43:47.151Z,958.03
2023-05-04T04:44:47.160Z,958.02
2023-05-04T04:45:47.131Z,958.03
2023-05-04T04:46:47.212Z,958.04
2023-05-04T04:47:47.170Z,957.99
2023-05-04T04:48:47.097Z,958.05
2023-05-04T04:49:47.092Z,958.03
2023-05-04T04:50:47.084Z,957.99
2023-05-04T04:51:47.052Z,958.02
2023-05-04T04:52:47.049Z,958.03
2023-05-04T04:53:47.031Z,958.01
2023-05-04T04:54:47.016Z,958.02
2023-05-04T04:55:47.025Z,957.99
2023-05-04T04:56:46.983Z,958.02
2023-05-04T04:57:46.981Z,958.04
2023-05-04T04:58:46.996Z,958.04
2023-05-04T04:59:46.975Z,958.05
2023-05-04T05:00:46.952Z,958.01
2023-05-04T05:01:46.946Z,958.00
2023-05-04T05:02:46.940Z,957.99
2023-05-04T05:03:46.886Z,958.05
2023-05-04T05:04:46.955Z,958.05
2023-05-04T05:05:46.854Z,958.02
2023-05-04T05:06:46.866Z,958.02
2023-05-04T05:07:46.884Z,958.05
2023-05-04T05:08:46.864Z,958.04
2023-05-04T05:09:46.850Z,958.03
2023-05-04T05:10:46.800Z,958.07
2023-05-04T05:11:46.786Z,958.03
2023-05-04T05:12:46.843Z,958.06
2023-05-04T05:13:46.767Z,958.06
2023-05-04T05:14:46.757Z,958.04
2023-05-04T05:15:46.731Z,958.09
2023-05-04T05:16:46.739Z,958.07
2023-05-04T05:17:46.759Z,958.08
2023-05-04T05:18:46.707Z,958.09
2023-05-04T05:19:46.830Z,958.15
2023-05-04T05:20:46.698Z,958.09
2023-05-04T05:21:46.669Z,958.07
2023-05-04T05:22:46.651Z,958.08
2023-05-04T05:23:46.628Z,958.00
2023-05-04T05:24:46.666Z,958.02
2023-05-04T05:25:46.602Z,958.05
2023-05-04T05:26:46.630Z,958.02
2023-05-04T05:27:46.626Z,958.03
2023-05-04T05:28:46.552Z,957.97
2023-05-04T05:29:46.574Z,958.02
2023-05-04T05:30:46.588Z,957.97
2023-05-04T05:31:46.508Z,957.93
2023-05-04T05:32:48.457Z,957.96
2023-05-04T05:33:46.481Z,957.95
2023-05-04T05:34:46.498Z,957.99
2023-05-04T05:35:46.497Z,957.97
2023-05-04T05:36:46.460Z,957.94
2023-05-04T05:37:46.469Z,957.96
2023-05-04T05:38:48.312Z,957.96
2023-05-04T05:39:46.434Z,957.94
2023-05-04T05:40:46.430Z,957.99
2023-05-04T05:41:46.421Z,957.93
2023-05-04T05:42:46.353Z,957.95
2023-05-04T05:43:46.355Z,957.93
2023-05-04T05:44:46.347Z,957.94
2023-05-04T05:45:46.473Z,957.91
2023-05-04T05:46:46.430Z,957.92
2023-05-04T05:47:46.372Z,957.96
2023-05-04T05:48:46.294Z,957.91
2023-05-04T05:49:46.642Z,957.92
2023-05-04T05:50:46.261Z,957.91
2023-05-04T05:51:46.305Z,957.86
2023-05-04T05:52:46.359Z,957.85
2023-05-04T05:53:46.222Z,957.88
2023-05-04T05:54:46.236Z,957.86
2023-05-04T05:55:46.196Z,957.89
2023-05-04T05:56:46.222Z,957.86
2023-05-04T05:57:46.220Z,957.84
2023-05-04T05:58:46.156Z,957.87
2023-05-04T05:59:46.185Z,957.89
2023-05-04T06:00:46.139Z,957.89
2023-05-04T06:01:46.130Z,957.79
2023-05-04T06:02:46.222Z,957.81
2023-05-04T06:03:46.355Z,957.77
2023-05-04T06:04:46.210Z,957.77
2023-05-04T06:05:46.097Z,957.77
2023-05-04T06:06:46.320Z,957.73
2023-05-04T06:07:46.061Z,957.75
2023-05-04T06:08:46.051Z,957.74
2023-05-04T06:09:46.037Z,957.74
2023-05-04T06:10:46.114Z,957.76
2023-05-04T06:11:46.002Z,957.75
2023-05-04T06:12:46.030Z,957.74
2023-05-04T06:13:45.976Z,957.72
2023-05-04T06:14:45.961Z,957.72
2023-05-04T06:15:45.962Z,957.72
2023-05-04T06:16:46.076Z,957.75
2023-05-04T06:17:45.967Z,957.70
2023-05-04T06:18:45.918Z,957.69
2023-05-04T06:19:46.124Z,957.68
2023-05-04T06:20:45.909Z,957.69
2023-05-04T06:21:45.843Z,957.73
2023-05-04T06:22:45.860Z,957.71
2023-05-04T06:23:45.829Z,957.67
2023-05-04T06:24:45.856Z,957.66
2023-05-04T06:25:45.802Z,957.64
2023-05-04T06:26:45.790Z,957.68
2023-05-04T06:27:45.801Z,957.68
2023-05-04T06:28:45.889Z,957.70
2023-05-04T06:29:45.791Z,957.65
2023-05-04T06:30:45.758Z,957.66
2023-05-04T06:31:46.839Z,957.60
2023-05-04T06:32:45.778Z,957.62
2023-05-04T06:33:45.690Z,957.61
2023-05-04T06:34:45.690Z,957.65
2023-05-04T06:35:45.702Z,957.66
2023-05-04T06:36:45.689Z,957.64
2023-05-04T06:37:45.679Z,957.61
2023-05-04T06:38:45.643Z,957.67
2023-05-04T06:39:45.637Z,957.65
2023-05-04T06:40:45.612Z,957.64
2023-05-04T06:41:45.633Z,957.60
2023-05-04T06:42:45.591Z,957.61
2023-05-04T06:43:45.569Z,957.57
2023-05-04T06:44:45.554Z,957.59
2023-05-04T06:45:45.570Z,957.57
2023-05-04T06:46:45.692Z,957.58
2023-05-04T06:47:45.550Z,957.49
2023-05-04T06:48:45.495Z,957.52
2023-05-04T06:49:45.488Z,957.54
2023-05-04T06:50:45.529Z,957.48
2023-05-04T06:51:45.468Z,957.47
2023-05-04T06:52:45.442Z,957.46
2023-05-04T06:53:45.437Z,957.42
2023-05-04T06:54:45.467Z,957.38
2023-05-04T06:55:45.401Z,957.38
2023-05-04T06:56:45.395Z,957.38
2023-05-04T06:57:45.408Z,957.34
2023-05-04T06:58:45.355Z,957.37
2023-05-04T06:59:45.344Z,957.35
2023-05-04T07:00:45.374Z,957.34
2023-05-04T07:01:45.415Z,957.33
2023-05-04T07:02:45.342Z,957.31
2023-05-04T07:03:45.397Z,957.33
2023-05-04T07:04:45.276Z,957.34
2023-05-04T07:05:45.279Z,957.37
2023-05-04T07:06:45.248Z,957.32
2023-05-04T07:07:45.240Z,957.33
2023-05-04T07:08:45.276Z,957.34
2023-05-04T07:09:45.220Z,957.34
2023-05-04T07:10:45.229Z,957.30
2023-05-04T07:11:45.188Z,957.31
2023-05-04T07:12:45.212Z,957.36
2023-05-04T07:13:45.212Z,957.31
2023-05-04T07:14:45.141Z,957.33
2023-05-04T07:15:45.179Z,957.39
2023-05-04T07:16:45.210Z,957.33
2023-05-04T07:17:45.186Z,957.38
2023-05-04T07:18:45.126Z,957.40
2023-05-04T07:19:45.117Z,957.34
2023-05-04T07:20:45.051Z,957.33
2023-05-04T07:21:45.046Z,957.37
2023-05-04T07:22:45.074Z,957.35
2023-05-04T07:23:45.059Z,957.34
2023-05-04T07:24:45.010Z,957.33
2023-05-04T07:25:44.980Z,957.28
2023-05-04T07:26:44.976Z,957.29
2023-05-04T07:27:45.028Z,957.29
2023-05-04T07:28:44.958Z,957.26
2023-05-04T07:29:44.937Z,957.28
2023-05-04T07:30:44.933Z,957.26
2023-05-04T07:31:45.011Z,957.30
2023-05-04T07:32:44.914Z,957.30
2023-05-04T07:33:44.905Z,957.30
2023-05-04T07:34:46.462Z,957.30
2023-05-04T07:35:44.881Z,957.25
2023-05-04T07:36:44.850Z,957.23
2023-05-04T07:37:44.846Z,957.27
2023-05-04T07:38:44.872Z,957.23
2023-05-04T07:39:44.838Z,957.25
2023-05-04T07:40:44.803Z,957.26
2023-05-04T07:41:44.780Z,957.24
2023-05-04T07:42:44.767Z,957.23
2023-05-04T07:43:44.795Z,957.22
2023-05-04T07:44:44.758Z,957.20
2023-05-04T07:45:44.790Z,957.24
2023-05-04T07:46:44.704Z,957.22
2023-05-04T07:47:44.762Z,957.25
2023-05-04T07:48:44.716Z,957.26
2023-05-04T07:49:44.659Z,957.20
2023-05-04T07:50:44.690Z,957.22
2023-05-04T07:51:44.663Z,957.23
2023-05-04T07:52:44.816Z,957.22
2023-05-04T07:53:44.648Z,957.20
2023-05-04T07:54:44.610Z,957.22
2023-05-04T07:55:44.632Z,957.23
2023-05-04T07:56:44.585Z,957.19
2023-05-04T07:57:44.578Z,957.21
2023-05-04T07:58:44.570Z,957.20
2023-05-04T07:59:44.552Z,957.19
2023-05-04T08:00:44.565Z,957.19
2023-05-04T08:01:44.560Z,957.19
2023-05-04T08:02:44.567Z,957.19
2023-05-04T08:03:44.492Z,957.20
2023-05-04T08:04:44.692Z,957.18
2023-05-04T08:05:44.537Z,957.17
2023-05-04T08:06:44.479Z,957.18
2023-05-04T08:07:44.444Z,957.18
2023-05-04T08:08:44.441Z,957.17
2023-05-04T08:09:44.450Z,957.16
2023-05-04T08:10:44.409Z,957.16
2023-05-04T08:11:44.409Z,957.13
2023-05-04T08:12:44.412Z,957.14
2023-05-04T08:13:44.355Z,957.12
2023-05-04T08:14:44.384Z,957.10
2023-05-04T08:15:44.352Z,957.11
2023-05-04T08:16:44.439Z,957.14
2023-05-04T08:17:44.325Z,957.09
2023-05-04T08:18:44.286Z,957.13
2023-05-04T08:19:44.286Z,957.12
2023-05-04T08:20:44.257Z,957.11
2023-05-04T08:21:44.255Z,957.09
2023-05-04T08:22:44.245Z,957.03
2023-05-04T08:23:44.211Z,957.04
2023-05-04T08:24:44.200Z,957.05
2023-05-04T08:25:44.209Z,957.06
2023-05-04T08:26:47.409Z,957.04
2023-05-04T08:27:44.208Z,957.05
2023-05-04T08:28:44.244Z,957.06
2023-05-04T08:29:44.153Z,957.07
2023-05-04T08:30:44.131Z,957.06
2023-05-04T08:31:44.262Z,957.07
2023-05-04T08:32:44.334Z,957.10
2023-05-04T08:33:44.129Z,957.03
2023-05-04T08:34:44.089Z,957.09
2023-05-04T08:35:44.063Z,957.06
2023-05-04T08:36:44.053Z,957.06
2023-05-04T08:37:44.086Z,957.00
2023-05-04T08:38:44.046Z,957.03
2023-05-04T08:39:44.015Z,957.02
2023-05-04T08:40:44.043Z,956.97
2023-05-04T08:41:43.995Z,956.97
2023-05-04T08:42:43.975Z,957.01
2023-05-04T08:43:43.961Z,957.00
2023-05-04T08:44:44.031Z,957.03
2023-05-04T08:45:43.959Z,957.00
2023-05-04T08:46:43.957Z,957.01
2023-05-04T08:48:14.441Z,956.97
2023-05-04T08:48:43.895Z,957.00
2023-05-04T08:49:43.919Z,956.99
2023-05-04T08:50:43.883Z,956.97
2023-05-04T08:51:43.914Z,957.00
2023-05-04T08:52:43.829Z,956.98
2023-05-04T08:53:43.844Z,957.02
2023-05-04T08:54:43.819Z,956.96
2023-05-04T08:55:43.800Z,956.96
2023-05-04T08:56:43.812Z,956.91
2023-05-04T08:57:43.787Z,956.88
2023-05-04T08:58:43.882Z,956.94
2023-05-04T08:59:43.752Z,956.95
2023-05-04T09:00:43.825Z,956.94
2023-05-04T09:01:43.741Z,956.92
2023-05-04T09:02:43.804Z,956.91
2023-05-04T09:03:43.796Z,956.89
2023-05-04T09:04:43.696Z,956.92
2023-05-04T09:05:43.679Z,956.88
2023-05-04T09:06:43.657Z,956.97
2023-05-04T09:07:43.663Z,956.91
2023-05-04T09:08:43.619Z,956.92
2023-05-04T09:09:43.641Z,956.91
2023-05-04T09:10:43.641Z,956.92
2023-05-04T09:11:43.579Z,956.88
2023-05-04T09:12:43.612Z,956.85
2023-05-04T09:13:43.562Z,956.82
2023-05-04T09:14:43.545Z,956.83
2023-05-04T09:15:43.560Z,956.84
2023-05-04T09:16:43.564Z,956.83
2023-05-04T09:17:57.048Z,956.84
2023-05-04T09:18:43.488Z,956.83
2023-05-04T09:19:43.490Z,956.82
2023-05-04T09:20:43.469Z,956.82
2023-05-04T09:21:43.479Z,956.83
2023-05-04T09:22:43.462Z,956.84
2023-05-04T09:23:43.432Z,956.83
2023-05-04T09:24:43.414Z,956.80
2023-05-04T09:25:43.398Z,956.78
2023-05-04T09:26:43.416Z,956.81
2023-05-04T09:27:43.364Z,956.80
2023-05-04T09:28:43.349Z,956.76
2023-05-04T09:29:43.378Z,956.78
2023-05-04T09:30:43.461Z,956.75
2023-05-04T09:31:43.306Z,956.76
2023-05-04T09:32:43.370Z,956.72
2023-05-04T09:33:43.298Z,956.76
2023-05-04T09:34:43.297Z,956.77
2023-05-04T09:35:43.261Z,956.74
2023-05-04T09:36:43.267Z,956.78
2023-05-04T09:37:43.231Z,956.75
2023-05-04T09:38:43.254Z,956.71
2023-05-04T09:39:43.239Z,956.69
2023-05-04T09:40:43.195Z,956.68
2023-05-04T09:41:43.251Z,956.65
2023-05-04T09:42:43.172Z,956.67
2023-05-04T09:43:43.189Z,956.68
2023-05-04T09:44:43.270Z,956.66
2023-05-04T09:45:43.135Z,956.68
2023-05-04T09:46:43.129Z,956.66
2023-05-04T09:47:43.133Z,956.68
2023-05-04T09:48:43.085Z,956.64
2023-05-04T09:49:43.106Z,956.58
2023-05-04T09:50:43.062Z,956.60
2023-05-04T09:51:43.067Z,956.56
2023-05-04T09:52:43.035Z,956.54
2023-05-04T09:53:43.016Z,956.53
2023-05-04T09:54:43.009Z,956.50
2023-05-04T09:55:42.996Z,956.55
2023-05-04T09:56:43.003Z,956.54
2023-05-04T09:57:42.965Z,956.49
2023-05-04T09:58:42.975Z,956.53
2023-05-04T09:59:42.956Z,956.52
2023-05-04T10:00:42.926Z,956.55
2023-05-04T10:01:44.803Z,956.51
2023-05-04T10:02:42.988Z,956.47
2023-05-04T10:03:42.903Z,956.53
2023-05-04T10:04:42.873Z,956.48
2023-05-04T10:05:42.988Z,956.43
2023-05-04T10:06:42.845Z,956.45
2023-05-04T10:07:42.866Z,956.40
2023-05-04T10:08:42.819Z,956.39
2023-05-04T10:11:10.682Z,956.39
2023-05-04T10:11:16.054Z,956.37
2023-05-04T10:12:16.071Z,956.40
2023-05-04T10:13:16.117Z,956.33
2023-05-04T10:14:16.024Z,956.32
2023-05-04T10:15:16.012Z,956.32
2023-05-04T10:16:16.057Z,956.31
2023-05-04T10:17:15.962Z,956.34
2023-05-04T10:18:15.957Z,956.29
2023-05-04T10:19:15.951Z,956.30
2023-05-04T10:20:15.912Z,956.29
2023-05-04T10:21:15.932Z,956.26
2023-05-04T10:22:15.926Z,956.24
2023-05-04T10:23:15.883Z,956.27
2023-05-04T10:24:15.886Z,956.27
2023-05-04T10:25:15.854Z,956.25
2023-05-04T10:26:15.857Z,956.29
2023-05-04T10:27:15.869Z,956.27
2023-05-04T10:28:15.825Z,956.24
2023-05-04T10:29:15.791Z,956.23
2023-05-04T10:30:15.791Z,956.24
2023-05-04T10:31:15.817Z,956.25
2023-05-04T10:32:15.858Z,956.23
2023-05-04T10:33:15.738Z,956.20
2023-05-04T10:34:15.739Z,956.22
2023-05-04T10:35:15.727Z,956.21
2023-05-04T10:36:15.769Z,956.17
2023-05-04T10:37:15.702Z,956.17
2023-05-04T10:38:15.672Z,956.19
2023-05-04T10:39:15.668Z,956.15
2023-05-04T10:40:15.706Z,956.15
2023-05-04T10:41:15.644Z,956.14
2023-05-04T10:42:15.649Z,956.09
2023-05-04T10:43:15.630Z,956.01
2023-05-04T10:44:15.606Z,956.01
2023-05-04T10:45:15.616Z,955.98
2023-05-04T10:46:15.620Z,955.94
2023-05-04T10:47:15.615Z,955.99
2023-05-04T10:48:15.559Z,955.98
2023-05-04T10:49:15.522Z,955.97
2023-05-04T10:50:15.548Z,955.97
2023-05-04T10:51:15.527Z,955.98
2023-05-04T10:52:15.530Z,955.98
2023-05-04T10:53:15.497Z,955.98
2023-05-04T10:54:15.462Z,955.91
2023-05-04T10:55:15.514Z,955.91
2023-05-04T10:56:15.475Z,955.89
2023-05-04T10:57:15.427Z,955.88
2023-05-04T10:58:15.415Z,955.90
2023-05-04T10:59:15.437Z,955.90
2023-05-04T11:00:15.391Z,955.86
2023-05-04T11:01:15.385Z,955.86
2023-05-04T11:02:15.397Z,955.83
2023-05-04T11:03:15.548Z,955.87
2023-05-04T11:04:15.383Z,955.83
2023-05-04T11:05:15.422Z,955.83
2023-05-04T11:06:15.351Z,955.78
2023-05-04T11:07:15.308Z,955.82
2023-05-04T11:08:15.278Z,955.82
2023-05-04T11:09:15.286Z,955.82
2023-05-04T11:10:15.400Z,955.81
2023-05-04T11:11:15.239Z,955.82
2023-05-04T11:12:15.243Z,955.75
2023-05-04T11:13:15.258Z,955.79
2023-05-04T11:14:15.218Z,955.76
2023-05-04T11:15:15.219Z,955.75
2023-05-04T11:16:15.213Z,955.73
2023-05-04T11:18:15.462Z,955.70
2023-05-04T11:19:15.154Z,955.70
2023-05-04T11:20:15.166Z,955.69
2023-05-04T11:21:15.126Z,955.66
2023-05-04T11:22:15.090Z,955.63
2023-05-04T11:23:15.118Z,955.63
2023-05-04T11:24:15.078Z,955.61
2023-05-04T11:25:15.088Z,955.61
2023-05-04T11:26:15.056Z,955.62
2023-05-04T11:27:15.054Z,955.63
2023-05-04T11:28:15.037Z,955.64
2023-05-04T11:29:15.023Z,955.58
2023-05-04T11:30:15.061Z,955.58
2023-05-04T11:31:15.088Z,955.55
2023-05-04T11:32:15.008Z,955.59
2023-05-04T11:33:14.960Z,955.59
2023-05-04T11:34:14.939Z,955.54
2023-05-04T11:35:14.924Z,955.54
2023-05-04T11:36:14.977Z,955.55
2023-05-04T11:37:14.896Z,955.55
2023-05-04T11:38:14.899Z,955.55
2023-05-04T11:39:14.866Z,955.44
2023-05-04T11:40:14.977Z,955.46
2023-05-04T11:41:14.845Z,955.49
2023-05-04T11:42:14.862Z,955.45
2023-05-04T11:43:14.830Z,955.46
2023-05-04T11:44:14.798Z,955.47
2023-05-04T11:45:14.807Z,955.47
2023-05-04T11:46:14.860Z,955.47
2023-05-04T11:47:14.822Z,955.44
2023-05-04T11:48:15.963Z,955.46
2023-05-04T11:49:14.743Z,955.45
2023-05-04T11:50:14.764Z,955.43
2023-05-04T11:51:14.714Z,955.50
2023-05-04T11:52:14.728Z,955.45
2023-05-04T11:53:14.687Z,955.46
2023-05-04T11:54:14.735Z,955.44
2023-05-04T11:55:14.654Z,955.42
2023-05-04T11:56:14.665Z,955.41
2023-05-04T11:57:14.646Z,955.39
2023-05-04T11:58:14.661Z,955.41
2023-05-04T11:59:14.617Z,955.39
2023-05-04T12:00:14.605Z,955.38
2023-05-04T12:01:14.591Z,955.37
2023-05-04T12:02:14.585Z,955.35
2023-05-04T12:03:14.652Z,955.30
2023-05-04T12:04:14.573Z,955.34
2023-05-04T12:05:14.555Z,955.30
2023-05-04T12:06:14.543Z,955.32
2023-05-04T12:07:14.507Z,955.35
2023-05-04T12:08:14.495Z,955.34
2023-05-04T12:09:14.480Z,955.34
2023-05-04T12:10:14.488Z,955.32
2023-05-04T12:11:14.568Z,955.30
2023-05-04T12:12:14.429Z,955.23
2023-05-04T12:13:14.550Z,955.28
2023-05-04T12:14:14.444Z,955.30
2023-05-04T12:15:14.401Z,955.31
2023-05-04T12:16:14.416Z,955.26
2023-05-04T12:17:14.414Z,955.28
2023-05-04T12:18:14.366Z,955.30
2023-05-04T12:19:14.357Z,955.32
2023-05-04T12:20:14.354Z,955.28
2023-05-04T12:21:14.331Z,955.26
2023-05-04T12:22:14.336Z,955.26
2023-05-04T12:23:14.296Z,955.27
2023-05-04T12:24:14.283Z,955.26
2023-05-04T12:25:14.285Z,955.32
2023-05-04T12:26:14.268Z,955.30
2023-05-04T12:27:14.338Z,955.24
2023-05-04T12:28:14.229Z,955.24
2023-05-04T12:29:14.218Z,955.22
2023-05-04T12:30:14.240Z,955.25